OOCL California — VRWC8 — position and weather

sailwx.info

Track history (hours):
 
Tides and Currents Weather Stations Pressure Air Temp Water Temp Dewpoint Dewpoint Depression Visibility Wind Speed Wind Dir Waves Ship Positions

OOCL California

Last reported at 2015-May-20 20:10 UTC. Time now 2015-May-22 22:11 UTC.
Position N 22°05' E 114°10'.

Length 276 m; beam 40 m; draft 14 m.

Type: Cargo ship. MMSI: 477704000.

Date/timePositionNaut miles runAvg speedWind from/ knotsBaromVisibWave heightAir tempDewpointWater temp
2015-May-20 20:10N 22°05' E 114°10'710.9
2015-May-20 19:32N 22°12' E 114°11'1211.3
2015-May-20 18:30N 22°21' E 114°03'9 9.9
2015-May-20 17:33N 22°24' E 113°53'3 2.8
2015-May-20 16:33N 22°27' E 113°53'0 0.0
2015-May-20 15:33N 22°27' E 113°53'0 0.0
2015-May-20 14:33N 22°27' E 113°53'0 0.0
2015-May-20 13:33N 22°27' E 113°53'0 0.0
2015-May-20 12:33N 22°27' E 113°53'0 0.0
2015-May-20 11:33N 22°27' E 113°53'0 0.0
2015-May-20 10:33N 22°27' E 113°53'0 0.0
2015-May-20 09:33N 22°27' E 113°53'0 0.0
2015-May-20 08:33N 22°27' E 113°53'0 0.0
2015-May-20 07:33N 22°27' E 113°53'0 0.0
2015-May-20 06:33N 22°27' E 113°53'0 0.0
2015-May-20 05:33N 22°27' E 113°53'0 0.0
2015-May-20 04:33N 22°27' E 113°53'0 0.0
2015-May-20 03:33N 22°27' E 113°53'0 0.3
2015-May-20 02:34N 22°27' E 113°53'10 7.6
2015-May-20 01:13N 22°21' E 114°02'1110.3
2015-May-20 00:08N 22°13' E 114°10'3 5.3
2015-May-19 23:29N 22°10' E 114°12'8 8.5
2015-May-19 22:33N 22°09' E 114°21'1716.9
2015-May-19 21:33N 22°08' E 114°39'12016.6
2015-May-19 14:20N 22°45' E 116°43'1716.9
2015-May-19 13:20N 22°55' E 116°58'1316.6
2015-May-19 12:32N 23°02' E 117°10'6716.8
2015-May-19 08:33N 23°42' E 118°08'1818.2
2015-May-19 07:33N 23°54' E 118°24'1818.0
2015-May-19 06:32N 24°05' E 118°39'1918.1
2015-May-19 05:30N 24°18' E 118°55'1918.0
2015-May-19 04:26N 24°30' E 119°11'1817.2
2015-May-19 03:24N 24°41' E 119°26'1416.0
2015-May-19 02:32N 24°51' E 119°36'2914.4
2015-May-19 00:29N 25°11' E 120°01'29614.8
2015-May-18 04:32N 29°37' E 122°27'1313.4
2015-May-18 03:33N 29°46' E 122°17'9 9.2
2015-May-18 02:33N 29°48' E 122°06'6 4.8
2015-May-18 01:23N 29°46' E 122°00'0 0.0
2015-May-18 00:23N 29°46' E 122°00'0 0.0
2015-May-17 23:33N 29°46' E 122°00'0 0.0
2015-May-17 22:33N 29°46' E 122°00'0 0.0
2015-May-17 21:33N 29°46' E 122°00'0 0.1
2015-May-17 20:33N 29°46' E 122°00'0 0.0
2015-May-17 19:33N 29°46' E 122°00'0 0.0
2015-May-17 18:33N 29°46' E 122°00'0 0.1
2015-May-17 17:33N 29°46' E 122°00'0 0.0
2015-May-17 16:33N 29°46' E 122°00'0 0.1
2015-May-17 15:33N 29°46' E 122°00'0 0.1
2015-May-17 14:33N 29°46' E 122°00'0 0.0
2015-May-17 13:33N 29°46' E 122°00'0 0.0
2015-May-17 12:33N 29°46' E 122°00'0 0.0
2015-May-17 11:33N 29°46' E 122°00'0 0.0
2015-May-17 10:33N 29°46' E 122°00'0 0.0
2015-May-17 09:33N 29°46' E 122°00'3 2.8
2015-May-17 08:33N 29°47' E 122°03'10 9.7
2015-May-17 07:33N 29°49' E 122°14'9 8.7
2015-May-17 06:33N 29°44' E 122°22'1110.8
2015-May-17 05:33N 29°43' E 122°35'1 0.7
2015-May-17 04:33N 29°43' E 122°34'2 1.8
2015-May-17 03:33N 29°45' E 122°33'1 0.5
2015-May-17 02:33N 29°45' E 122°33'1110.7
2015-May-17 01:33N 29°52' E 122°42'1312.8
2015-May-17 00:33N 30°03' E 122°49'1413.9
2015-May-16 23:33N 30°17' E 122°51'1312.8
2015-May-16 22:33N 30°30' E 122°52'1212.5
2015-May-16 21:33N 30°42' E 122°56'1312.9
2015-May-16 20:33N 30°55' E 122°56'1211.8
2015-May-16 19:33N 31°05' E 122°49'1413.8
2015-May-16 18:34N 31°04' E 122°33'1312.8
2015-May-16 17:34N 31°06' E 122°18'1514.9
2015-May-16 16:33N 31°14' E 122°03'1514.7
2015-May-16 15:33N 31°18' E 121°46'6 6.5
2015-May-16 14:33N 31°20' E 121°39'0 0.0
2015-May-16 13:33N 31°20' E 121°39'0 0.0
2015-May-16 12:33N 31°20' E 121°39'0 0.0
2015-May-16 11:33N 31°20' E 121°39'0 0.0
2015-May-16 10:33N 31°20' E 121°39'0 0.0
2015-May-16 09:30N 31°20' E 121°39'0 0.0
2015-May-16 08:33N 31°20' E 121°39'0 0.0
2015-May-16 07:33N 31°20' E 121°39'0 0.0
2015-May-16 06:33N 31°20' E 121°39'0 0.0
2015-May-16 05:33N 31°20' E 121°39'0 0.0
2015-May-16 04:33N 31°20' E 121°39'0 0.0
2015-May-16 03:33N 31°20' E 121°39'0 0.0
2015-May-16 02:33N 31°20' E 121°39'0 0.0
2015-May-16 01:33N 31°20' E 121°39'0 0.0
2015-May-16 00:33N 31°20' E 121°39'0 0.0
2015-May-15 23:33N 31°20' E 121°39'0 0.0
2015-May-15 22:33N 31°20' E 121°39'0 0.0
2015-May-15 21:33N 31°20' E 121°39'0 0.0
2015-May-15 20:33N 31°20' E 121°39'0 0.0
2015-May-15 19:33N 31°20' E 121°39'0 0.0
2015-May-15 18:33N 31°20' E 121°39'0 0.0
2015-May-15 17:33N 31°20' E 121°39'0 0.0
2015-May-15 16:33N 31°20' E 121°39'0 0.4
2015-May-15 15:33N 31°21' E 121°40'2 2.4
2015-May-15 14:34N 31°22' E 121°37'6 6.2
2015-May-15 13:34N 31°19' E 121°44'1110.8
2015-May-15 12:34N 31°16' E 121°56'1110.8
2015-May-15 11:34N 31°13' E 122°08'1111.1
2015-May-15 10:34N 31°06' E 122°19'9 9.2
2015-May-15 09:33N 31°07' E 122°29'7 7.6
2015-May-15 08:33N 31°07' E 122°38'64 3.2
2015-May-14 12:31N 30°06' E 122°60'1512.8
2015-May-14 11:22N 29°51' E 122°57'20 9.6
2015-May-14 09:20N 29°32' E 122°51'2712.4
2015-May-14 07:12N 29°08' E 122°40'24011.3
2015-May-13 10:05N 25°42' E 120°21'5 8.9
2015-May-13 09:33N 25°38' E 120°18'9 9.0
2015-May-13 08:33N 25°30' E 120°13'9 9.2
2015-May-13 07:33N 25°22' E 120°08'10 9.9
2015-May-13 06:32N 25°14' E 120°02'1110.7
2015-May-13 05:33N 25°05' E 119°56'1110.6
2015-May-13 04:33N 24°57' E 119°48'1111.1
2015-May-13 03:33N 24°51' E 119°38'1313.4
2015-May-13 02:33N 24°43' E 119°26'1615.5
2015-May-13 01:33N 24°32' E 119°14'1515.1
2015-May-13 00:33N 24°22' E 119°01'1515.2
2015-May-12 23:33N 24°12' E 118°49'1515.3
2015-May-12 22:33N 24°01' E 118°37'1615.3
2015-May-12 21:31N 23°51' E 118°24'1515.7
2015-May-12 20:33N 23°42' E 118°10'1616.1
2015-May-12 19:33N 23°32' E 117°57'1616.0
2015-May-12 18:32N 23°22' E 117°43'1515.4
2015-May-12 17:32N 23°13' E 117°29'1515.0
2015-May-12 16:34N 23°05' E 117°16'1514.6
2015-May-12 15:33N 22°57' E 117°02'1414.3
2015-May-12 14:33N 22°49' E 116°49'1414.1
2015-May-12 13:33N 22°41' E 116°37'2114.3
2015-May-12 12:07N 22°31' E 116°18'1214.8
2015-May-12 11:17N 22°26' E 116°05'8714.5
2015-May-12 05:20N 22°07' E 114°34'1114.4
2015-May-12 04:33N 22°07' E 114°22'1211.4
2015-May-12 03:31N 22°12' E 114°10'8 8.2
2015-May-12 02:33N 22°19' E 114°07'0 0.3
2015-May-12 01:27N 22°19' E 114°07'0 0.0
2015-May-12 00:33N 22°19' E 114°07'0 0.1
2015-May-11 23:33N 22°19' E 114°07'0 0.0
2015-May-11 22:33N 22°19' E 114°07'0 0.0
2015-May-11 21:33N 22°19' E 114°07'0 0.0
2015-May-11 20:33N 22°19' E 114°07'0 0.0
2015-May-11 19:33N 22°19' E 114°07'0 0.0
2015-May-11 18:33N 22°19' E 114°07'0 0.0
2015-May-11 17:33N 22°19' E 114°07'0 0.0
2015-May-11 16:33N 22°19' E 114°07'0 0.0
2015-May-11 15:33N 22°19' E 114°07'0 0.0
2015-May-11 14:33N 22°19' E 114°07'1 0.6
2015-May-11 13:33N 22°19' E 114°07'7 6.5
2015-May-11 12:28N 22°13' E 114°10'6 6.5
2015-May-11 11:33N 22°08' E 114°13'9 8.9
2015-May-11 10:33N 22°02' E 114°06'10 9.4
2015-May-11 09:29N 21°54' E 113°59'  
Track history (hours):
 
Tides and Currents Weather Stations Pressure Air Temp Water Temp Dewpoint Dewpoint Depression Visibility Wind Speed Wind Dir Waves Ship Positions

OOCL California

Last reported at 2015-May-20 20:10 UTC. Time now 2015-May-22 22:11 UTC.
Position N 22°05' E 114°10'.

Length 276 m; beam 40 m; draft 14 m.

Type: Cargo ship. MMSI: 477704000.

Date/timePositionNaut miles runAvg speedWind from/ knotsBaromVisibWave heightAir tempDewpointWater temp
2015-May-20 20:10N 22°05' E 114°10'710.9
2015-May-20 19:32N 22°12' E 114°11'1211.3
2015-May-20 18:30N 22°21' E 114°03'9 9.9
2015-May-20 17:33N 22°24' E 113°53'3 2.8
2015-May-20 16:33N 22°27' E 113°53'0 0.0
2015-May-20 15:33N 22°27' E 113°53'0 0.0
2015-May-20 14:33N 22°27' E 113°53'0 0.0
2015-May-20 13:33N 22°27' E 113°53'0 0.0
2015-May-20 12:33N 22°27' E 113°53'0 0.0
2015-May-20 11:33N 22°27' E 113°53'0 0.0
2015-May-20 10:33N 22°27' E 113°53'0 0.0
2015-May-20 09:33N 22°27' E 113°53'0 0.0
2015-May-20 08:33N 22°27' E 113°53'0 0.0
2015-May-20 07:33N 22°27' E 113°53'0 0.0
2015-May-20 06:33N 22°27' E 113°53'0 0.0
2015-May-20 05:33N 22°27' E 113°53'0 0.0
2015-May-20 04:33N 22°27' E 113°53'0 0.0
2015-May-20 03:33N 22°27' E 113°53'0 0.3
2015-May-20 02:34N 22°27' E 113°53'10 7.6
2015-May-20 01:13N 22°21' E 114°02'1110.3
2015-May-20 00:08N 22°13' E 114°10'3 5.3
2015-May-19 23:29N 22°10' E 114°12'8 8.5
2015-May-19 22:33N 22°09' E 114°21'1716.9
2015-May-19 21:33N 22°08' E 114°39'12016.6
2015-May-19 14:20N 22°45' E 116°43'1716.9
2015-May-19 13:20N 22°55' E 116°58'1316.6
2015-May-19 12:32N 23°02' E 117°10'6716.8
2015-May-19 08:33N 23°42' E 118°08'1818.2
2015-May-19 07:33N 23°54' E 118°24'1818.0
2015-May-19 06:32N 24°05' E 118°39'1918.1
2015-May-19 05:30N 24°18' E 118°55'1918.0
2015-May-19 04:26N 24°30' E 119°11'1817.2
2015-May-19 03:24N 24°41' E 119°26'1416.0
2015-May-19 02:32N 24°51' E 119°36'2914.4
2015-May-19 00:29N 25°11' E 120°01'29614.8
2015-May-18 04:32N 29°37' E 122°27'1313.4
2015-May-18 03:33N 29°46' E 122°17'9 9.2
2015-May-18 02:33N 29°48' E 122°06'6 4.8
2015-May-18 01:23N 29°46' E 122°00'0 0.0
2015-May-18 00:23N 29°46' E 122°00'0 0.0
2015-May-17 23:33N 29°46' E 122°00'0 0.0
2015-May-17 22:33N 29°46' E 122°00'0 0.0
2015-May-17 21:33N 29°46' E 122°00'0 0.1
2015-May-17 20:33N 29°46' E 122°00'0 0.0
2015-May-17 19:33N 29°46' E 122°00'0 0.0
2015-May-17 18:33N 29°46' E 122°00'0 0.1
2015-May-17 17:33N 29°46' E 122°00'0 0.0
2015-May-17 16:33N 29°46' E 122°00'0 0.1
2015-May-17 15:33N 29°46' E 122°00'0 0.1
2015-May-17 14:33N 29°46' E 122°00'0 0.0
2015-May-17 13:33N 29°46' E 122°00'0 0.0
2015-May-17 12:33N 29°46' E 122°00'0 0.0
2015-May-17 11:33N 29°46' E 122°00'0 0.0
2015-May-17 10:33N 29°46' E 122°00'0 0.0
2015-May-17 09:33N 29°46' E 122°00'3 2.8
2015-May-17 08:33N 29°47' E 122°03'10 9.7
2015-May-17 07:33N 29°49' E 122°14'9 8.7
2015-May-17 06:33N 29°44' E 122°22'1110.8
2015-May-17 05:33N 29°43' E 122°35'1 0.7
2015-May-17 04:33N 29°43' E 122°34'2 1.8
2015-May-17 03:33N 29°45' E 122°33'1 0.5
2015-May-17 02:33N 29°45' E 122°33'1110.7
2015-May-17 01:33N 29°52' E 122°42'1312.8
2015-May-17 00:33N 30°03' E 122°49'1413.9
2015-May-16 23:33N 30°17' E 122°51'1312.8
2015-May-16 22:33N 30°30' E 122°52'1212.5
2015-May-16 21:33N 30°42' E 122°56'1312.9
2015-May-16 20:33N 30°55' E 122°56'1211.8
2015-May-16 19:33N 31°05' E 122°49'1413.8
2015-May-16 18:34N 31°04' E 122°33'1312.8
2015-May-16 17:34N 31°06' E 122°18'1514.9
2015-May-16 16:33N 31°14' E 122°03'1514.7
2015-May-16 15:33N 31°18' E 121°46'6 6.5
2015-May-16 14:33N 31°20' E 121°39'0 0.0
2015-May-16 13:33N 31°20' E 121°39'0 0.0
2015-May-16 12:33N 31°20' E 121°39'0 0.0
2015-May-16 11:33N 31°20' E 121°39'0 0.0
2015-May-16 10:33N 31°20' E 121°39'0 0.0
2015-May-16 09:30N 31°20' E 121°39'0 0.0
2015-May-16 08:33N 31°20' E 121°39'0 0.0
2015-May-16 07:33N 31°20' E 121°39'0 0.0
2015-May-16 06:33N 31°20' E 121°39'0 0.0
2015-May-16 05:33N 31°20' E 121°39'0 0.0
2015-May-16 04:33N 31°20' E 121°39'0 0.0
2015-May-16 03:33N 31°20' E 121°39'0 0.0
2015-May-16 02:33N 31°20' E 121°39'0 0.0
2015-May-16 01:33N 31°20' E 121°39'0 0.0
2015-May-16 00:33N 31°20' E 121°39'0 0.0
2015-May-15 23:33N 31°20' E 121°39'0 0.0
2015-May-15 22:33N 31°20' E 121°39'0 0.0
2015-May-15 21:33N 31°20' E 121°39'0 0.0
2015-May-15 20:33N 31°20' E 121°39'0 0.0
2015-May-15 19:33N 31°20' E 121°39'0 0.0
2015-May-15 18:33N 31°20' E 121°39'0 0.0
2015-May-15 17:33N 31°20' E 121°39'0 0.0
2015-May-15 16:33N 31°20' E 121°39'0 0.4
2015-May-15 15:33N 31°21' E 121°40'2 2.4
2015-May-15 14:34N 31°22' E 121°37'6 6.2
2015-May-15 13:34N 31°19' E 121°44'1110.8
2015-May-15 12:34N 31°16' E 121°56'1110.8
2015-May-15 11:34N 31°13' E 122°08'1111.1
2015-May-15 10:34N 31°06' E 122°19'9 9.2
2015-May-15 09:33N 31°07' E 122°29'7 7.6
2015-May-15 08:33N 31°07' E 122°38'64 3.2
2015-May-14 12:31N 30°06' E 122°60'1512.8
2015-May-14 11:22N 29°51' E 122°57'20 9.6
2015-May-14 09:20N 29°32' E 122°51'2712.4
2015-May-14 07:12N 29°08' E 122°40'24011.3
2015-May-13 10:05N 25°42' E 120°21'5 8.9
2015-May-13 09:33N 25°38' E 120°18'9 9.0
2015-May-13 08:33N 25°30' E 120°13'9 9.2
2015-May-13 07:33N 25°22' E 120°08'10 9.9
2015-May-13 06:32N 25°14' E 120°02'1110.7
2015-May-13 05:33N 25°05' E 119°56'1110.6
2015-May-13 04:33N 24°57' E 119°48'1111.1
2015-May-13 03:33N 24°51' E 119°38'1313.4
2015-May-13 02:33N 24°43' E 119°26'1615.5
2015-May-13 01:33N 24°32' E 119°14'1515.1
2015-May-13 00:33N 24°22' E 119°01'1515.2
2015-May-12 23:33N 24°12' E 118°49'1515.3
2015-May-12 22:33N 24°01' E 118°37'1615.3
2015-May-12 21:31N 23°51' E 118°24'1515.7
2015-May-12 20:33N 23°42' E 118°10'1616.1
2015-May-12 19:33N 23°32' E 117°57'1616.0
2015-May-12 18:32N 23°22' E 117°43'1515.4
2015-May-12 17:32N 23°13' E 117°29'1515.0
2015-May-12 16:34N 23°05' E 117°16'1514.6
2015-May-12 15:33N 22°57' E 117°02'1414.3
2015-May-12 14:33N 22°49' E 116°49'1414.1
2015-May-12 13:33N 22°41' E 116°37'2114.3
2015-May-12 12:07N 22°31' E 116°18'1214.8
2015-May-12 11:17N 22°26' E 116°05'8714.5
2015-May-12 05:20N 22°07' E 114°34'1114.4
2015-May-12 04:33N 22°07' E 114°22'1211.4
2015-May-12 03:31N 22°12' E 114°10'8 8.2
2015-May-12 02:33N 22°19' E 114°07'0 0.3
2015-May-12 01:27N 22°19' E 114°07'0 0.0
2015-May-12 00:33N 22°19' E 114°07'0 0.1
2015-May-11 23:33N 22°19' E 114°07'0 0.0
2015-May-11 22:33N 22°19' E 114°07'0 0.0
2015-May-11 21:33N 22°19' E 114°07'0 0.0
2015-May-11 20:33N 22°19' E 114°07'0 0.0
2015-May-11 19:33N 22°19' E 114°07'0 0.0
2015-May-11 18:33N 22°19' E 114°07'0 0.0
2015-May-11 17:33N 22°19' E 114°07'0 0.0
2015-May-11 16:33N 22°19' E 114°07'0 0.0
2015-May-11 15:33N 22°19' E 114°07'0 0.0
2015-May-11 14:33N 22°19' E 114°07'1 0.6
2015-May-11 13:33N 22°19' E 114°07'7 6.5
2015-May-11 12:28N 22°13' E 114°10'6 6.5
2015-May-11 11:33N 22°08' E 114°13'9 8.9
2015-May-11 10:33N 22°02' E 114°06'10 9.4
2015-May-11 09:29N 21°54' E 113°59'  

Dump ship's entire track history